Godley, Illinois
Current Conditions -  °F | °C
As of 6:55 PM on Wednesday 22 Oct 2014 (Local Time) from KC09 Reporting Station
Clear Clear  
Wind Chill: 49°   Ceiling: Unl
Heat Index: 49°   Visibility: 10mi
Dew Point: 38°   Wind: 3mph
Humidity: 65%   Direction: 90°E
Pressure: 30.24"   Gusts: NA
Location:  41.2302°N, 88.2734°W
Report Text: KC09 222355Z AUTO 09003KT 10SM CLR 09/03 A3024 RMK AO2 T00940032 10152 20094
Loading
Personal Weather Stations






























Interactive Weather Map
Tropical Storm Tracking
New forecast layout! Learn more

10-Day Weather Forecast

Advertisements
Track Severe Weather on mobile